Airfield :
LOGIN :

Register | Disclaimer

   EN    FR    IT 

 










Legend :    VFR   Marginal VFR   IFR   Intensive IFR   Very Intensive IFR
Visi :
Ceiling :
>= 8 km
>= 3000ft
5 to 8 km
1000 to 3000 ft
1500m to 5 km
500 to 1000 ft
800 to 1500m
200 to 500 ft
< 800m
< 200 ft
Symbols :   Thunderstorms  Fog  Heavy snow  Heavy precipitations  Wind > 20 kt
SIGMETs :     Misc.  Thunderstorms  Icing  Turbulence  Mountain Waves  Volcanic Ashes






- Airport Elevation : 659 ft
- IATA code : LYN


LFLY - Lyon Bron

CURRENT METAR :
  • 280500Z AUTO 19011KT 9999 FEW037/// OVC086/// ///TCU 11/07 Q1015 BECMG NSC

EXPIRED METARs :
  • 280300Z AUTO 17013KT CAVOK 12/06 Q1015 NOSIG
  • 280230Z AUTO 18015KT CAVOK 12/06 Q1015 NOSIG
  • 280200Z AUTO 18014KT 150V210 CAVOK 12/06 Q1016 TEMPO 18015G25KT

TAF TAF LFLY
Valid from the 28 at 00:00 until the 29 at 00:00 UTC


272300Z 2800/2824 18012KT CAVOK
PROB30
TEMPO 2800/2803 18015G25KT
TEMPO 2807/2812 -RA OVC050
PROB40
TEMPO 2809/2812 VRB03KT 4000 RA OVC020
FM281200 VRB03KT 9999 BKN050
PROB40
TEMPO 2814/2821 -SHRA BKN030TCU
TEMPO 2821/2824 4000 SHRA BKN020TCU
ATIS : +33 4 72 15 87 96



MET'MAP, your aeronautical weather chart ! - Copyright ORBIFLY December 2007 - Disclaimer

ORBIFLY MET'MAP TEAM :

Programming & Development : Alexandra Zaïnal
Original concept : Baudouin d'Aumeries
Technical & hardware support : Manuel Goepfert
Assistance : Marc-Olivier Méhu




SOURCES & CREDITS :

   NOAA